createdAt,value
2024-02-29T00:00:39.549Z,11.60
2024-02-29T00:03:09.994Z,11.60
2024-02-29T00:05:37.983Z,11.60
2024-02-29T00:08:05.226Z,11.70
2024-02-29T00:10:31.979Z,11.60
2024-02-29T00:12:58.870Z,11.70
2024-02-29T00:15:27.402Z,11.70
2024-02-29T00:17:54.122Z,11.60
2024-02-29T00:20:20.876Z,11.70
2024-02-29T00:22:47.700Z,11.60
2024-02-29T00:25:14.508Z,11.60
2024-02-29T00:27:41.332Z,11.60
2024-02-29T00:30:08.826Z,11.60
2024-02-29T00:32:36.306Z,11.60
2024-02-29T00:35:03.111Z,11.60
2024-02-29T00:37:30.686Z,11.60
2024-02-29T00:39:59.671Z,11.60
2024-02-29T00:42:26.533Z,11.60
2024-02-29T00:44:53.310Z,11.60
2024-02-29T00:47:20.070Z,11.60
2024-02-29T00:49:46.769Z,11.60
2024-02-29T00:52:13.589Z,11.60
2024-02-29T00:54:40.865Z,11.60
2024-02-29T00:57:07.965Z,11.60
2024-02-29T00:59:34.696Z,11.50
2024-02-29T01:02:02.169Z,11.60
2024-02-29T01:04:28.995Z,11.50
2024-02-29T01:06:57.355Z,11.50
2024-02-29T01:09:28.651Z,11.50
2024-02-29T01:11:55.667Z,11.50
2024-02-29T01:14:22.556Z,11.50
2024-02-29T01:16:49.776Z,11.50
2024-02-29T01:19:16.718Z,11.50
2024-02-29T01:21:43.625Z,11.50
2024-02-29T01:24:10.424Z,11.50
2024-02-29T01:26:37.251Z,11.50
2024-02-29T01:29:04.054Z,11.50
2024-02-29T01:31:31.694Z,11.50
2024-02-29T01:33:58.483Z,11.50
2024-02-29T01:36:25.234Z,11.50
2024-02-29T01:38:51.985Z,11.50
2024-02-29T01:41:19.973Z,11.50
2024-02-29T01:43:54.138Z,11.50
2024-02-29T01:46:21.098Z,11.50
2024-02-29T01:48:49.385Z,11.50
2024-02-29T01:51:17.459Z,11.50
2024-02-29T01:53:44.251Z,11.40
2024-02-29T01:56:12.107Z,11.40
2024-02-29T01:58:39.313Z,11.40
2024-02-29T02:01:06.183Z,11.40
2024-02-29T02:03:33.168Z,11.40
2024-02-29T02:05:59.894Z,11.40
2024-02-29T02:08:30.520Z,11.40
2024-02-29T02:10:57.314Z,11.40
2024-02-29T02:13:24.393Z,11.40
2024-02-29T02:15:51.203Z,11.40
2024-02-29T02:18:18.080Z,11.50
2024-02-29T02:20:44.827Z,11.40
2024-02-29T02:23:11.677Z,11.40
2024-02-29T02:25:38.411Z,11.40
2024-02-29T02:28:05.627Z,11.40
2024-02-29T02:30:32.446Z,11.40
2024-02-29T02:32:59.656Z,11.40
2024-02-29T02:35:26.619Z,11.40
2024-02-29T02:37:54.475Z,11.40
2024-02-29T02:40:21.404Z,11.40
2024-02-29T02:42:48.253Z,11.30
2024-02-29T02:45:17.460Z,11.30
2024-02-29T02:47:44.309Z,11.30
2024-02-29T02:50:11.731Z,11.30
2024-02-29T02:52:38.649Z,11.30
2024-02-29T02:55:05.950Z,11.30
2024-02-29T02:57:32.814Z,11.30
2024-02-29T02:59:59.656Z,11.30
2024-02-29T03:02:26.890Z,11.30
2024-02-29T03:04:53.736Z,11.20
2024-02-29T03:07:20.644Z,11.20
2024-02-29T03:09:47.946Z,11.20
2024-02-29T03:12:15.276Z,11.20
2024-02-29T03:14:42.529Z,11.30
2024-02-29T03:17:09.422Z,11.20
2024-02-29T03:19:36.277Z,11.30
2024-02-29T03:22:03.159Z,11.30
2024-02-29T03:24:30.139Z,11.20
2024-02-29T03:26:56.965Z,11.30
2024-02-29T03:29:23.821Z,11.30
2024-02-29T03:31:51.365Z,11.20
2024-02-29T03:34:18.299Z,11.20
2024-02-29T03:36:45.157Z,11.20
2024-02-29T03:39:11.978Z,11.20
2024-02-29T03:41:38.755Z,11.20
2024-02-29T03:44:05.557Z,11.20
2024-02-29T03:46:32.296Z,11.20
2024-02-29T03:48:59.173Z,11.20
2024-02-29T03:51:26.585Z,11.20
2024-02-29T03:53:53.361Z,11.20
2024-02-29T03:56:21.495Z,11.20
2024-02-29T03:58:48.306Z,11.20
2024-02-29T04:01:15.255Z,11.20
2024-02-29T04:03:42.163Z,11.30
2024-02-29T04:06:08.984Z,11.20
2024-02-29T04:08:39.105Z,11.20
2024-02-29T04:11:05.978Z,11.20
2024-02-29T04:13:32.855Z,11.20
2024-02-29T04:15:59.745Z,11.20
2024-02-29T04:18:26.575Z,11.20
2024-02-29T04:20:53.333Z,11.20
2024-02-29T04:23:20.175Z,11.20
2024-02-29T04:25:47.017Z,11.20
2024-02-29T04:28:15.734Z,11.20
2024-02-29T04:30:43.975Z,11.20
2024-02-29T04:33:12.714Z,11.20
2024-02-29T04:35:39.697Z,11.20
2024-02-29T04:38:06.686Z,11.20
2024-02-29T04:40:34.437Z,11.20
2024-02-29T04:43:01.820Z,11.10
2024-02-29T04:45:28.716Z,11.20
2024-02-29T04:47:55.857Z,11.10
2024-02-29T04:50:22.832Z,11.10
2024-02-29T04:52:49.765Z,11.00
2024-02-29T04:55:16.693Z,11.00
2024-02-29T04:57:43.575Z,11.00
2024-02-29T05:00:11.530Z,10.90
2024-02-29T05:02:38.414Z,10.90
2024-02-29T05:05:07.434Z,10.90
2024-02-29T05:07:34.883Z,10.90
2024-02-29T05:10:02.901Z,10.90
2024-02-29T05:12:29.786Z,10.90
2024-02-29T05:14:56.644Z,10.90
2024-02-29T05:17:23.440Z,10.90
2024-02-29T05:19:50.234Z,10.90
2024-02-29T05:22:17.537Z,10.90
2024-02-29T05:24:44.432Z,10.90
2024-02-29T05:27:11.297Z,10.90
2024-02-29T05:29:38.078Z,10.90
2024-02-29T05:32:05.152Z,10.90
2024-02-29T05:34:32.028Z,10.90
2024-02-29T05:36:58.847Z,10.90
2024-02-29T05:39:25.820Z,10.80
2024-02-29T05:41:52.668Z,10.80
2024-02-29T05:44:20.506Z,10.80
2024-02-29T05:46:47.487Z,10.80
2024-02-29T05:49:14.322Z,10.80
2024-02-29T05:51:41.125Z,10.80
2024-02-29T05:54:07.886Z,10.80
2024-02-29T05:56:34.746Z,10.80
2024-02-29T05:59:02.374Z,10.80
2024-02-29T06:01:31.079Z,10.80
2024-02-29T06:03:57.958Z,10.80
2024-02-29T06:06:24.758Z,10.80
2024-02-29T06:08:51.618Z,10.80
2024-02-29T06:11:18.496Z,10.90
2024-02-29T06:13:45.471Z,10.90
2024-02-29T06:16:13.414Z,10.90
2024-02-29T06:18:40.416Z,10.90
2024-02-29T06:21:07.497Z,10.90
2024-02-29T06:23:38.015Z,10.90
2024-02-29T06:26:05.217Z,10.90
2024-02-29T06:28:32.053Z,10.90
2024-02-29T06:30:59.010Z,10.90
2024-02-29T06:33:26.574Z,11.00
2024-02-29T06:35:53.420Z,11.00
2024-02-29T06:38:20.222Z,11.00
2024-02-29T06:40:47.451Z,11.00
2024-02-29T06:43:14.383Z,11.00
2024-02-29T06:45:50.818Z,10.90
2024-02-29T06:48:18.447Z,10.90
2024-02-29T06:50:45.391Z,10.90
2024-02-29T06:53:13.048Z,10.80
2024-02-29T06:55:39.861Z,10.80
2024-02-29T06:58:06.723Z,10.80
2024-02-29T07:00:33.988Z,10.80
2024-02-29T07:03:03.696Z,10.80
2024-02-29T07:05:33.377Z,10.80
2024-02-29T07:08:02.658Z,10.80
2024-02-29T07:10:29.568Z,10.80
2024-02-29T07:12:56.425Z,10.80
2024-02-29T07:15:23.558Z,10.90
2024-02-29T07:17:50.462Z,10.90
2024-02-29T07:20:18.962Z,10.90
2024-02-29T07:22:47.436Z,10.90
2024-02-29T07:25:16.005Z,10.90
2024-02-29T07:27:43.798Z,10.90
2024-02-29T07:30:11.100Z,11.00
2024-02-29T07:32:37.899Z,11.00
2024-02-29T07:35:05.295Z,11.00
2024-02-29T07:37:33.566Z,11.00
2024-02-29T07:40:00.774Z,11.00
2024-02-29T07:42:28.609Z,11.00
2024-02-29T07:44:55.439Z,11.10
2024-02-29T07:47:22.180Z,11.10
2024-02-29T07:49:48.974Z,11.20
2024-02-29T07:52:16.089Z,11.20
2024-02-29T07:54:44.587Z,11.30
2024-02-29T07:57:12.021Z,11.30
2024-02-29T07:59:38.841Z,11.40
2024-02-29T08:02:06.666Z,11.40
2024-02-29T08:04:33.625Z,11.40
2024-02-29T08:07:00.516Z,11.40
2024-02-29T08:09:27.313Z,11.40
2024-02-29T08:11:55.717Z,11.40
2024-02-29T08:14:22.677Z,11.40
2024-02-29T08:16:49.397Z,11.50
2024-02-29T08:19:17.458Z,11.50
2024-02-29T08:21:44.498Z,11.60
2024-02-29T08:24:11.476Z,11.60
2024-02-29T08:26:38.716Z,11.70
2024-02-29T08:29:05.467Z,11.70
2024-02-29T08:31:32.308Z,11.70
2024-02-29T08:33:59.520Z,11.80
2024-02-29T08:36:26.547Z,11.90
2024-02-29T08:38:54.112Z,12.00
2024-02-29T08:41:20.874Z,12.00
2024-02-29T08:43:47.695Z,11.90
2024-02-29T08:46:14.535Z,11.90
2024-02-29T08:48:41.508Z,11.90
2024-02-29T08:51:08.577Z,11.90
2024-02-29T08:53:35.605Z,11.90
2024-02-29T08:56:02.686Z,11.90
2024-02-29T08:58:29.599Z,11.90
2024-02-29T09:00:56.559Z,12.00
2024-02-29T09:03:23.758Z,12.00
2024-02-29T09:05:51.278Z,12.00
2024-02-29T09:08:21.249Z,12.10
2024-02-29T09:10:49.402Z,12.20
2024-02-29T09:13:29.565Z,12.10
2024-02-29T09:16:02.752Z,12.10
2024-02-29T09:18:31.628Z,12.10
2024-02-29T09:20:58.684Z,12.00
2024-02-29T09:23:27.453Z,12.00
2024-02-29T09:25:54.919Z,12.10
2024-02-29T09:28:21.799Z,12.10
2024-02-29T09:30:48.652Z,12.10
2024-02-29T09:33:15.465Z,12.10
2024-02-29T09:35:42.383Z,12.00
2024-02-29T09:38:09.281Z,12.00
2024-02-29T09:40:45.664Z,12.00
2024-02-29T09:43:18.675Z,12.00
2024-02-29T09:45:45.631Z,12.00
2024-02-29T09:48:12.588Z,12.00
2024-02-29T09:50:39.558Z,11.90
2024-02-29T09:53:06.316Z,11.80
2024-02-29T09:55:33.204Z,11.80
2024-02-29T09:58:01.057Z,11.90
2024-02-29T10:00:28.078Z,11.90
2024-02-29T10:02:55.972Z,11.90
2024-02-29T10:05:23.096Z,12.00
2024-02-29T10:07:50.048Z,12.00
2024-02-29T10:10:17.848Z,12.00
2024-02-29T10:12:44.987Z,12.10
2024-02-29T10:15:11.827Z,12.10
2024-02-29T10:17:39.984Z,12.10
2024-02-29T10:20:10.601Z,12.00
2024-02-29T10:22:39.939Z,12.10
2024-02-29T10:25:13.009Z,12.10
2024-02-29T10:27:40.101Z,12.10
2024-02-29T10:30:13.723Z,12.20
2024-02-29T10:32:43.646Z,12.10
2024-02-29T10:35:37.047Z,12.20
2024-02-29T10:38:06.351Z,12.30
2024-02-29T10:40:33.359Z,12.30
2024-02-29T10:43:00.072Z,12.40
2024-02-29T10:45:27.838Z,12.40
2024-02-29T10:48:18.921Z,12.50
2024-02-29T10:51:09.829Z,12.60
2024-02-29T10:54:14.453Z,12.70
2024-02-29T10:56:43.198Z,12.70
2024-02-29T10:59:10.048Z,12.90
2024-02-29T11:01:38.424Z,13.00
2024-02-29T11:04:05.942Z,13.00
2024-02-29T11:06:43.963Z,13.00
2024-02-29T11:09:11.955Z,12.90
2024-02-29T11:11:38.726Z,12.90
2024-02-29T11:14:05.504Z,12.90
2024-02-29T11:16:38.880Z,12.90
2024-02-29T11:19:06.127Z,12.90
2024-02-29T11:21:32.925Z,12.90
2024-02-29T11:24:04.236Z,12.90
2024-02-29T11:26:37.737Z,12.90
2024-02-29T11:29:16.858Z,12.90
2024-02-29T11:32:10.674Z,12.90
2024-02-29T11:34:37.503Z,13.00
2024-02-29T11:37:05.848Z,13.10
2024-02-29T11:39:32.588Z,13.10
2024-02-29T11:42:06.018Z,13.20
2024-02-29T11:44:33.229Z,13.20
2024-02-29T11:47:00.330Z,13.20
2024-02-29T11:49:27.871Z,13.20
2024-02-29T11:51:55.547Z,13.10
2024-02-29T11:54:24.932Z,13.10
2024-02-29T11:56:55.051Z,13.00
2024-02-29T11:59:21.960Z,12.90
2024-02-29T12:01:48.893Z,13.00
2024-02-29T12:04:16.387Z,12.80
2024-02-29T12:06:45.594Z,12.80
2024-02-29T12:09:13.640Z,12.60
2024-02-29T12:11:41.325Z,12.50
2024-02-29T12:14:08.379Z,12.50
2024-02-29T12:19:03.835Z,12.30
2024-02-29T12:21:30.886Z,12.20
2024-02-29T12:23:57.997Z,12.00
2024-02-29T12:26:24.793Z,11.80
2024-02-29T12:28:51.539Z,11.50
2024-02-29T12:31:18.606Z,11.40
2024-02-29T12:33:46.346Z,11.30
2024-02-29T12:36:14.281Z,11.10
2024-02-29T12:38:41.657Z,10.90
2024-02-29T12:41:08.496Z,10.70
2024-02-29T12:43:37.906Z,10.60
2024-02-29T12:46:05.028Z,10.60
2024-02-29T12:48:32.053Z,10.80
2024-02-29T12:50:59.071Z,10.90
2024-02-29T12:53:26.156Z,11.00
2024-02-29T12:55:53.194Z,11.00
2024-02-29T12:58:20.167Z,10.90
2024-02-29T13:00:47.038Z,10.80
2024-02-29T13:03:13.833Z,10.80
2024-02-29T13:05:41.380Z,10.80
2024-02-29T13:08:10.004Z,10.70
2024-02-29T13:10:37.108Z,10.50
2024-02-29T13:13:10.260Z,10.40
2024-02-29T13:15:38.104Z,10.30
2024-02-29T13:18:05.236Z,10.20
2024-02-29T13:20:32.086Z,10.10
2024-02-29T13:22:59.446Z,10.00
2024-02-29T13:25:26.469Z,9.90
2024-02-29T13:27:53.516Z,9.90
2024-02-29T13:30:20.460Z,9.90
2024-02-29T13:32:47.474Z,10.00
2024-02-29T13:35:14.379Z,10.00
2024-02-29T13:37:42.556Z,10.00
2024-02-29T13:40:09.921Z,10.10
2024-02-29T13:42:36.768Z,10.10
2024-02-29T13:45:03.966Z,10.10
2024-02-29T13:47:30.809Z,10.10
2024-02-29T13:49:59.784Z,10.20
2024-02-29T13:52:26.812Z,10.20
2024-02-29T13:54:53.611Z,10.20
2024-02-29T13:57:20.388Z,10.20
2024-02-29T13:59:48.283Z,10.20
2024-02-29T14:02:15.194Z,10.20
2024-02-29T14:04:42.247Z,10.30
2024-02-29T14:07:09.178Z,10.30
2024-02-29T14:09:36.017Z,10.40
2024-02-29T14:12:02.931Z,10.50
2024-02-29T14:14:29.838Z,10.60
2024-02-29T14:16:56.587Z,10.70
2024-02-29T14:19:23.404Z,10.80
2024-02-29T14:21:50.441Z,10.80
2024-02-29T14:24:17.331Z,10.70
2024-02-29T14:26:44.914Z,10.70
2024-02-29T14:29:11.738Z,10.70
2024-02-29T14:31:38.540Z,10.70
2024-02-29T14:34:07.016Z,10.50
2024-02-29T14:36:35.488Z,10.40
2024-02-29T14:39:03.608Z,10.40
2024-02-29T14:41:35.813Z,10.30
2024-02-29T14:44:04.527Z,10.20
2024-02-29T14:46:31.732Z,10.20
2024-02-29T14:48:58.577Z,10.30
2024-02-29T14:51:25.373Z,10.20
2024-02-29T14:53:54.333Z,10.20
2024-02-29T14:56:21.586Z,10.10
2024-02-29T14:58:48.667Z,10.10
2024-02-29T15:01:16.195Z,10.00
2024-02-29T15:03:43.163Z,10.10
2024-02-29T15:06:10.005Z,10.10
2024-02-29T15:08:38.793Z,10.00
2024-02-29T15:11:05.767Z,9.90
2024-02-29T15:13:32.735Z,9.70
2024-02-29T15:15:59.842Z,9.40
2024-02-29T15:18:27.958Z,9.40
2024-02-29T15:20:54.794Z,9.30
2024-02-29T15:23:21.803Z,9.30
2024-02-29T15:25:48.689Z,9.30
2024-02-29T15:28:16.349Z,9.30
2024-02-29T15:30:44.575Z,9.20
2024-02-29T15:33:12.031Z,9.10
2024-02-29T15:35:38.962Z,9.00
2024-02-29T15:38:05.841Z,9.10
2024-02-29T15:40:32.800Z,9.10
2024-02-29T15:43:00.042Z,9.20
2024-02-29T15:45:26.820Z,9.20
2024-02-29T15:47:53.637Z,9.20
2024-02-29T15:50:20.811Z,9.20
2024-02-29T15:52:47.768Z,9.20
2024-02-29T15:55:14.703Z,9.10
2024-02-29T15:57:41.644Z,8.90
2024-02-29T16:00:10.223Z,8.80
2024-02-29T16:02:37.175Z,8.80
2024-02-29T16:05:04.898Z,8.80
2024-02-29T16:07:31.640Z,8.70
2024-02-29T16:09:58.383Z,8.70
2024-02-29T16:12:26.946Z,8.60
2024-02-29T16:14:54.015Z,8.50
2024-02-29T16:17:20.938Z,8.50
2024-02-29T16:19:49.355Z,8.50
2024-02-29T16:22:17.086Z,8.40
2024-02-29T16:24:43.907Z,8.30
2024-02-29T16:27:10.702Z,8.20
2024-02-29T16:29:37.883Z,8.10
2024-02-29T16:32:05.218Z,8.10
2024-02-29T16:34:33.902Z,8.10
2024-02-29T16:37:01.440Z,8.10
2024-02-29T16:39:28.302Z,8.10
2024-02-29T16:41:55.413Z,8.00
2024-02-29T16:44:24.453Z,8.10
2024-02-29T16:46:51.286Z,8.10
2024-02-29T16:49:18.289Z,8.10
2024-02-29T16:51:45.676Z,8.00
2024-02-29T16:54:13.613Z,7.80
2024-02-29T16:56:43.774Z,7.70
2024-02-29T16:59:11.900Z,7.60
2024-02-29T17:01:40.811Z,7.50
2024-02-29T17:04:08.391Z,7.50
2024-02-29T17:06:36.721Z,7.40
2024-02-29T17:09:04.566Z,7.40
2024-02-29T17:11:31.342Z,7.40
2024-02-29T17:13:58.226Z,7.40
2024-02-29T17:16:25.231Z,7.40
2024-02-29T17:18:52.331Z,7.30
2024-02-29T17:21:20.541Z,7.30
2024-02-29T17:23:47.681Z,7.30
2024-02-29T17:26:17.924Z,7.30
2024-02-29T17:28:45.292Z,7.20
2024-02-29T17:31:12.195Z,7.20
2024-02-29T17:33:40.983Z,7.20
2024-02-29T17:36:07.884Z,7.20
2024-02-29T17:38:34.695Z,7.20
2024-02-29T17:41:01.474Z,7.20
2024-02-29T17:43:28.336Z,7.20
2024-02-29T17:45:55.858Z,7.20
2024-02-29T17:48:22.938Z,7.20
2024-02-29T17:50:49.652Z,7.20
2024-02-29T17:53:16.402Z,7.20
2024-02-29T17:55:43.217Z,7.20
2024-02-29T17:58:10.057Z,7.20
2024-02-29T18:00:37.181Z,7.20
2024-02-29T18:03:04.375Z,7.10
2024-02-29T18:05:31.121Z,7.00
2024-02-29T18:08:02.616Z,6.90
2024-02-29T18:10:30.560Z,6.80
2024-02-29T18:12:58.711Z,6.70
2024-02-29T18:15:25.718Z,6.60
2024-02-29T18:17:52.589Z,6.60
2024-02-29T18:20:19.401Z,6.50
2024-02-29T18:22:46.313Z,6.50
2024-02-29T18:25:14.013Z,6.50
2024-02-29T18:27:41.468Z,6.40
2024-02-29T18:30:09.068Z,6.40
2024-02-29T18:32:36.903Z,6.40
2024-02-29T18:35:09.681Z,6.30
2024-02-29T18:37:41.290Z,6.30
2024-02-29T18:40:10.143Z,6.30
2024-02-29T18:42:37.062Z,6.20
2024-02-29T18:45:04.028Z,6.10
2024-02-29T18:47:33.040Z,6.10
2024-02-29T18:49:59.876Z,6.10
2024-02-29T18:52:26.820Z,6.10
2024-02-29T18:54:53.778Z,6.10
2024-02-29T18:57:20.524Z,6.00
2024-02-29T18:59:47.309Z,6.00
2024-02-29T19:02:14.118Z,6.00
2024-02-29T19:04:41.118Z,6.00
2024-02-29T19:07:08.107Z,5.90
2024-02-29T19:09:35.890Z,6.00
2024-02-29T19:12:02.875Z,6.00
2024-02-29T19:14:29.941Z,6.10
2024-02-29T19:16:56.734Z,6.20
2024-02-29T19:19:23.600Z,6.30
2024-02-29T19:21:50.611Z,6.30
2024-02-29T19:24:17.370Z,6.40
2024-02-29T19:26:44.341Z,6.40
2024-02-29T19:29:11.528Z,6.40
2024-02-29T19:31:38.369Z,6.50
2024-02-29T19:34:05.410Z,6.50
2024-02-29T19:36:32.302Z,6.50
2024-02-29T19:38:59.276Z,6.50
2024-02-29T19:41:26.088Z,6.50
2024-02-29T19:43:52.798Z,6.50
2024-02-29T19:46:20.105Z,6.50
2024-02-29T19:48:47.000Z,6.50
2024-02-29T19:51:13.849Z,6.50
2024-02-29T19:53:43.752Z,6.50
2024-02-29T19:56:11.399Z,6.50
2024-02-29T19:58:38.578Z,6.50
2024-02-29T20:01:06.201Z,6.50
2024-02-29T20:03:32.970Z,6.50
2024-02-29T20:05:59.935Z,6.60
2024-02-29T20:08:27.064Z,6.60
2024-02-29T20:10:53.848Z,6.60
2024-02-29T20:13:20.755Z,6.60
2024-02-29T20:15:48.247Z,6.70
2024-02-29T20:18:17.502Z,6.70
2024-02-29T20:20:44.409Z,6.70
2024-02-29T20:23:11.655Z,6.70
2024-02-29T20:25:38.599Z,6.70
2024-02-29T20:28:05.695Z,6.80
2024-02-29T20:30:32.475Z,6.80
2024-02-29T20:33:00.327Z,6.80
2024-02-29T20:35:27.269Z,6.70
2024-02-29T20:37:55.090Z,6.80
2024-02-29T20:40:23.211Z,6.80
2024-02-29T20:42:50.104Z,6.80
2024-02-29T20:45:17.774Z,6.80
2024-02-29T20:47:45.766Z,6.80
2024-02-29T20:50:14.615Z,6.70
2024-02-29T20:52:43.335Z,6.70
2024-02-29T20:55:10.665Z,6.70
2024-02-29T20:57:37.914Z,6.70
2024-02-29T21:00:05.142Z,6.60
2024-02-29T21:02:32.032Z,6.60
2024-02-29T21:05:05.277Z,6.60
2024-02-29T21:07:33.958Z,6.60
2024-02-29T21:10:02.160Z,6.60
2024-02-29T21:12:29.336Z,6.60
2024-02-29T21:14:56.386Z,6.60
2024-02-29T21:17:23.416Z,6.70
2024-02-29T21:19:50.348Z,6.70
2024-02-29T21:22:17.404Z,6.70
2024-02-29T21:24:45.433Z,6.70
2024-02-29T21:27:12.263Z,6.70
2024-02-29T21:29:41.538Z,6.70
2024-02-29T21:32:09.526Z,6.60
2024-02-29T21:34:36.287Z,6.60
2024-02-29T21:37:03.587Z,6.70
2024-02-29T21:39:36.511Z,6.70
2024-02-29T21:42:07.342Z,6.60
2024-02-29T21:44:34.389Z,6.60
2024-02-29T21:47:01.366Z,6.60
2024-02-29T21:49:28.201Z,6.60
2024-02-29T21:51:55.198Z,6.50
2024-02-29T21:54:23.719Z,6.50
2024-02-29T21:56:52.912Z,6.50
2024-02-29T21:59:20.311Z,6.50
2024-02-29T22:01:47.992Z,6.50
2024-02-29T22:04:15.143Z,6.40
2024-02-29T22:06:45.226Z,6.40
2024-02-29T22:09:12.273Z,6.30
2024-02-29T22:11:39.681Z,6.20
2024-02-29T22:14:06.666Z,6.20
2024-02-29T22:16:33.995Z,6.10
2024-02-29T22:19:01.565Z,6.00
2024-02-29T22:21:29.890Z,6.00
2024-02-29T22:23:58.737Z,6.00
2024-02-29T22:26:25.728Z,5.90
2024-02-29T22:28:55.655Z,6.00
2024-02-29T22:31:22.621Z,6.00
2024-02-29T22:33:49.813Z,6.00
2024-02-29T22:36:16.821Z,6.00
2024-02-29T22:38:46.428Z,6.00
2024-02-29T22:41:13.517Z,6.00
2024-02-29T22:43:40.805Z,5.90
2024-02-29T22:46:07.833Z,6.00
2024-02-29T22:48:34.750Z,6.00
2024-02-29T22:51:02.476Z,6.10
2024-02-29T22:53:29.354Z,6.10
2024-02-29T22:55:56.178Z,6.10
2024-02-29T22:58:23.177Z,6.10
2024-02-29T23:00:54.182Z,6.10
2024-02-29T23:03:24.548Z,6.10
2024-02-29T23:05:51.477Z,6.10
2024-02-29T23:08:18.903Z,6.10
2024-02-29T23:10:45.711Z,6.10
2024-02-29T23:13:13.485Z,6.10
2024-02-29T23:15:40.718Z,6.10
2024-02-29T23:18:07.932Z,6.10
2024-02-29T23:20:35.119Z,6.10
2024-02-29T23:23:02.256Z,6.10
2024-02-29T23:25:30.155Z,6.10
2024-02-29T23:27:57.382Z,6.20
2024-02-29T23:30:24.762Z,6.20
2024-02-29T23:32:51.790Z,6.20
2024-02-29T23:35:18.783Z,6.20
2024-02-29T23:37:46.516Z,6.20
2024-02-29T23:40:16.849Z,6.20
2024-02-29T23:42:44.452Z,6.20
2024-02-29T23:45:11.699Z,6.20
2024-02-29T23:47:38.765Z,6.20
2024-02-29T23:50:06.952Z,6.10
2024-02-29T23:52:34.352Z,6.10
2024-02-29T23:55:01.537Z,6.10
2024-02-29T23:57:29.327Z,6.10
2024-02-29T23:59:56.259Z,6.00
